createdAt,value
2023-04-25T00:00:35.496Z,95.09
2023-04-25T00:01:35.492Z,95.40
2023-04-25T00:02:35.647Z,96.02
2023-04-25T00:03:35.665Z,95.20
2023-04-25T00:04:35.811Z,95.92
2023-04-25T00:05:35.566Z,96.12
2023-04-25T00:06:35.473Z,96.02
2023-04-25T00:07:35.462Z,95.71
2023-04-25T00:08:35.449Z,95.50
2023-04-25T00:09:35.457Z,95.09
2023-04-25T00:10:35.464Z,95.30
2023-04-25T00:11:35.442Z,94.95
2023-04-25T00:12:35.425Z,95.05
2023-04-25T00:13:35.427Z,94.95
2023-04-25T00:14:35.430Z,94.95
2023-04-25T00:15:35.412Z,94.53
2023-04-25T00:16:35.485Z,94.43
2023-04-25T00:17:35.439Z,94.53
2023-04-25T00:18:35.401Z,94.23
2023-04-25T00:19:35.396Z,94.38
2023-04-25T00:20:35.388Z,94.28
2023-04-25T00:21:35.384Z,94.18
2023-04-25T00:22:35.377Z,94.18
2023-04-25T00:23:35.377Z,94.49
2023-04-25T00:24:35.377Z,93.98
2023-04-25T00:25:35.366Z,93.87
2023-04-25T00:26:35.380Z,93.66
2023-04-25T00:27:35.367Z,93.05
2023-04-25T00:28:35.351Z,92.84
2023-04-25T00:29:35.345Z,92.84
2023-04-25T00:30:35.358Z,92.94
2023-04-25T00:31:35.379Z,93.25
2023-04-25T00:32:35.409Z,93.05
2023-04-25T00:33:35.332Z,92.63
2023-04-25T00:34:35.346Z,92.94
2023-04-25T00:35:35.324Z,92.84
2023-04-25T00:36:35.318Z,92.53
2023-04-25T00:37:35.322Z,92.63
2023-04-25T00:38:35.300Z,92.84
2023-04-25T00:39:35.296Z,92.90
2023-04-25T00:40:35.294Z,92.94
2023-04-25T00:41:35.288Z,93.05
2023-04-25T00:42:35.306Z,92.94
2023-04-25T00:43:35.284Z,92.84
2023-04-25T00:44:35.276Z,92.90
2023-04-25T00:45:35.270Z,92.53
2023-04-25T00:46:35.295Z,92.90
2023-04-25T00:47:35.325Z,92.18
2023-04-25T00:48:35.260Z,92.22
2023-04-25T00:49:35.258Z,92.38
2023-04-25T00:50:35.249Z,92.08
2023-04-25T00:51:35.263Z,92.18
2023-04-25T00:52:35.240Z,92.84
2023-04-25T00:53:35.229Z,93.05
2023-04-25T00:54:35.239Z,92.38
2023-04-25T00:55:35.221Z,92.22
2023-04-25T00:56:35.222Z,92.69
2023-04-25T00:57:35.213Z,92.49
2023-04-25T00:58:35.229Z,92.59
2023-04-25T00:59:35.213Z,92.08
2023-04-25T01:00:35.261Z,92.18
2023-04-25T01:01:35.192Z,92.94
2023-04-25T01:02:35.337Z,92.74
2023-04-25T01:03:35.276Z,92.84
2023-04-25T01:04:35.180Z,92.90
2023-04-25T01:05:35.176Z,92.84
2023-04-25T01:06:35.181Z,93.11
2023-04-25T01:07:35.168Z,94.03
2023-04-25T01:08:35.166Z,93.98
2023-04-25T01:09:35.163Z,93.98
2023-04-25T01:10:35.158Z,92.84
2023-04-25T01:11:35.152Z,92.43
2023-04-25T01:12:35.142Z,92.22
2023-04-25T01:13:35.140Z,92.94
2023-04-25T01:14:35.160Z,92.84
2023-04-25T01:15:35.127Z,92.33
2023-04-25T01:16:35.188Z,92.94
2023-04-25T01:17:35.146Z,93.15
2023-04-25T01:18:35.116Z,92.53
2023-04-25T01:19:35.121Z,93.21
2023-04-25T01:20:35.120Z,92.84
2023-04-25T01:21:35.102Z,93.35
2023-04-25T01:22:35.112Z,92.33
2023-04-25T01:23:35.092Z,92.84
2023-04-25T01:24:35.098Z,92.53
2023-04-25T01:25:35.091Z,92.94
2023-04-25T01:26:35.085Z,93.35
2023-04-25T01:27:35.074Z,92.94
2023-04-25T01:28:35.069Z,92.74
2023-04-25T01:29:35.064Z,92.12
2023-04-25T01:30:35.075Z,92.33
2023-04-25T01:31:35.108Z,92.63
2023-04-25T01:32:35.086Z,92.74
2023-04-25T01:33:35.044Z,93.66
2023-04-25T01:34:35.041Z,94.08
2023-04-25T01:35:35.040Z,92.88
2023-04-25T01:36:35.043Z,92.88
2023-04-25T01:37:35.035Z,93.19
2023-04-25T01:38:35.027Z,93.40
2023-04-25T01:39:35.020Z,92.88
2023-04-25T01:40:35.013Z,92.99
2023-04-25T01:41:35.009Z,92.57
2023-04-25T01:42:35.001Z,93.60
2023-04-25T01:43:35.008Z,93.19
2023-04-25T01:44:34.995Z,92.88
2023-04-25T01:45:34.989Z,93.19
2023-04-25T01:46:35.052Z,92.78
2023-04-25T01:47:35.000Z,93.44
2023-04-25T01:48:34.980Z,93.40
2023-04-25T01:49:34.977Z,93.03
2023-04-25T01:50:34.963Z,93.19
2023-04-25T01:51:34.958Z,93.91
2023-04-25T01:52:34.954Z,94.02
2023-04-25T01:53:34.949Z,94.02
2023-04-25T01:54:34.965Z,93.81
2023-04-25T01:55:34.949Z,94.02
2023-04-25T01:56:34.935Z,94.02
2023-04-25T01:57:34.933Z,93.30
2023-04-25T01:58:34.922Z,93.91
2023-04-25T01:59:34.918Z,94.32
2023-04-25T02:00:34.919Z,93.71
2023-04-25T02:01:34.935Z,93.40
2023-04-25T02:02:35.091Z,93.91
2023-04-25T02:03:35.084Z,93.71
2023-04-25T02:04:35.028Z,94.32
2023-04-25T02:05:35.090Z,93.91
2023-04-25T02:06:34.890Z,93.40
2023-04-25T02:07:34.878Z,93.71
2023-04-25T02:08:34.882Z,94.43
2023-04-25T02:09:34.871Z,93.91
2023-04-25T02:10:34.877Z,93.40
2023-04-25T02:11:34.856Z,93.60
2023-04-25T02:12:34.876Z,93.50
2023-04-25T02:13:34.852Z,92.72
2023-04-25T02:14:34.870Z,92.88
2023-04-25T02:15:34.859Z,93.71
2023-04-25T02:16:34.953Z,94.23
2023-04-25T02:17:34.895Z,94.06
2023-04-25T02:18:34.851Z,93.96
2023-04-25T02:19:34.854Z,94.27
2023-04-25T02:20:34.817Z,94.12
2023-04-25T02:21:34.811Z,94.37
2023-04-25T02:22:34.814Z,94.47
2023-04-25T02:23:34.816Z,93.85
2023-04-25T02:24:34.797Z,93.96
2023-04-25T02:25:34.793Z,94.57
2023-04-25T02:26:34.797Z,94.57
2023-04-25T02:27:34.781Z,94.37
2023-04-25T02:28:34.785Z,94.37
2023-04-25T02:29:34.780Z,94.37
2023-04-25T02:30:34.833Z,94.27
2023-04-25T02:31:34.795Z,94.27
2023-04-25T02:32:34.792Z,94.37
2023-04-25T02:33:34.755Z,94.06
2023-04-25T02:34:34.777Z,94.62
2023-04-25T02:35:34.742Z,94.06
2023-04-25T02:36:34.740Z,94.42
2023-04-25T02:37:34.738Z,94.31
2023-04-25T02:38:34.735Z,94.21
2023-04-25T02:39:34.720Z,94.42
2023-04-25T02:40:34.719Z,94.93
2023-04-25T02:41:34.713Z,95.03
2023-04-25T02:42:34.715Z,95.34
2023-04-25T02:43:34.703Z,95.03
2023-04-25T02:44:34.700Z,95.65
2023-04-25T02:45:34.759Z,95.55
2023-04-25T02:46:39.284Z,94.72
2023-04-25T02:47:34.748Z,96.06
2023-04-25T02:48:34.676Z,96.17
2023-04-25T02:49:34.679Z,96.17
2023-04-25T02:50:34.707Z,95.34
2023-04-25T02:51:34.713Z,95.96
2023-04-25T02:52:34.655Z,96.06
2023-04-25T02:53:34.686Z,95.96
2023-04-25T02:54:34.714Z,96.17
2023-04-25T02:55:34.683Z,95.45
2023-04-25T02:56:34.683Z,94.97
2023-04-25T02:57:34.640Z,95.24
2023-04-25T02:58:34.679Z,95.34
2023-04-25T02:59:34.669Z,94.93
2023-04-25T03:00:34.637Z,95.28
2023-04-25T03:01:34.636Z,94.77
2023-04-25T03:02:34.706Z,94.87
2023-04-25T03:03:34.699Z,94.56
2023-04-25T03:04:34.707Z,94.46
2023-04-25T03:05:34.942Z,94.31
2023-04-25T03:06:34.658Z,93.69
2023-04-25T03:07:34.589Z,94.00
2023-04-25T03:08:34.585Z,94.31
2023-04-25T03:09:34.571Z,94.52
2023-04-25T03:10:34.571Z,94.52
2023-04-25T03:11:34.566Z,94.93
2023-04-25T03:12:34.555Z,95.03
2023-04-25T03:13:34.550Z,94.31
2023-04-25T03:14:34.557Z,94.31
2023-04-25T03:15:34.538Z,94.72
2023-04-25T03:16:34.604Z,94.93
2023-04-25T03:17:34.589Z,94.42
2023-04-25T03:18:34.531Z,94.10
2023-04-25T03:19:34.519Z,94.00
2023-04-25T03:20:34.521Z,94.42
2023-04-25T03:21:34.516Z,94.62
2023-04-25T03:22:34.523Z,94.31
2023-04-25T03:23:34.500Z,94.42
2023-04-25T03:24:34.496Z,94.82
2023-04-25T03:25:34.508Z,95.20
2023-04-25T03:26:34.487Z,95.20
2023-04-25T03:27:34.488Z,95.96
2023-04-25T03:28:34.488Z,95.45
2023-04-25T03:29:34.473Z,95.34
2023-04-25T03:30:34.480Z,95.34
2023-04-25T03:31:34.513Z,95.65
2023-04-25T03:32:34.478Z,95.24
2023-04-25T03:33:34.458Z,94.52
2023-04-25T03:34:34.445Z,94.52
2023-04-25T03:35:34.442Z,94.82
2023-04-25T03:36:34.434Z,95.14
2023-04-25T03:37:34.437Z,95.45
2023-04-25T03:38:34.443Z,94.82
2023-04-25T03:39:34.420Z,94.42
2023-04-25T03:40:34.414Z,94.72
2023-04-25T03:41:34.408Z,96.17
2023-04-25T03:42:34.404Z,96.06
2023-04-25T03:43:34.397Z,95.96
2023-04-25T03:44:34.391Z,95.86
2023-04-25T03:45:34.434Z,95.96
2023-04-25T03:46:34.398Z,95.55
2023-04-25T03:47:34.416Z,96.27
2023-04-25T03:48:34.374Z,95.70
2023-04-25T03:49:34.370Z,96.21
2023-04-25T03:50:34.372Z,96.27
2023-04-25T03:51:34.357Z,96.37
2023-04-25T03:52:34.356Z,96.27
2023-04-25T03:53:34.353Z,96.17
2023-04-25T03:54:34.363Z,96.37
2023-04-25T03:55:34.347Z,96.17
2023-04-25T03:56:34.336Z,96.42
2023-04-25T03:57:34.374Z,96.01
2023-04-25T03:58:34.323Z,96.48
2023-04-25T03:59:34.320Z,96.31
2023-04-25T04:00:34.318Z,96.62
2023-04-25T04:01:34.319Z,96.21
2023-04-25T04:02:34.468Z,96.21
2023-04-25T04:03:34.498Z,96.31
2023-04-25T04:04:34.526Z,96.11
2023-04-25T04:05:34.381Z,96.83
2023-04-25T04:06:34.288Z,96.31
2023-04-25T04:07:34.278Z,96.21
2023-04-25T04:08:34.276Z,96.21
2023-04-25T04:09:34.269Z,96.42
2023-04-25T04:10:34.479Z,96.83
2023-04-25T04:11:34.257Z,96.73
2023-04-25T04:12:34.251Z,96.42
2023-04-25T04:13:34.248Z,96.36
2023-04-25T04:14:34.310Z,96.56
2023-04-25T04:15:34.268Z,96.56
2023-04-25T04:16:34.730Z,96.26
2023-04-25T04:17:34.275Z,96.15
2023-04-25T04:18:34.222Z,96.26
2023-04-25T04:19:34.219Z,95.74
2023-04-25T04:20:34.221Z,96.36
2023-04-25T04:21:34.203Z,96.15
2023-04-25T04:22:34.198Z,96.88
2023-04-25T04:23:34.197Z,96.77
2023-04-25T04:24:34.211Z,96.67
2023-04-25T04:25:34.183Z,96.56
2023-04-25T04:26:34.197Z,96.77
2023-04-25T04:27:34.176Z,96.77
2023-04-25T04:28:34.166Z,96.98
2023-04-25T04:29:34.166Z,96.67
2023-04-25T04:30:34.154Z,96.98
2023-04-25T04:31:34.191Z,96.47
2023-04-25T04:32:34.173Z,97.02
2023-04-25T04:33:34.146Z,96.82
2023-04-25T04:34:34.139Z,97.02
2023-04-25T04:35:34.128Z,97.13
2023-04-25T04:36:34.126Z,97.13
2023-04-25T04:37:34.119Z,97.33
2023-04-25T04:38:34.111Z,97.44
2023-04-25T04:39:34.126Z,97.23
2023-04-25T04:40:34.110Z,97.23
2023-04-25T04:41:34.099Z,97.39
2023-04-25T04:42:34.111Z,97.75
2023-04-25T04:43:34.087Z,97.39
2023-04-25T04:44:34.085Z,96.88
2023-04-25T04:45:34.078Z,97.02
2023-04-25T04:46:34.102Z,96.92
2023-04-25T04:47:34.086Z,97.33
2023-04-25T04:48:34.063Z,97.33
2023-04-25T04:49:34.060Z,97.33
2023-04-25T04:50:34.065Z,96.92
2023-04-25T04:51:34.041Z,97.23
2023-04-25T04:52:34.038Z,97.23
2023-04-25T04:53:34.046Z,97.39
2023-04-25T04:54:34.030Z,97.33
2023-04-25T04:55:34.023Z,97.64
2023-04-25T04:56:34.017Z,97.50
2023-04-25T04:57:34.029Z,97.39
2023-04-25T04:58:34.036Z,97.44
2023-04-25T04:59:34.005Z,97.75
2023-04-25T05:00:34.076Z,97.39
2023-04-25T05:01:33.994Z,97.75
2023-04-25T05:02:34.076Z,97.39
2023-04-25T05:03:34.039Z,97.60
2023-04-25T05:04:34.028Z,97.29
2023-04-25T05:05:33.974Z,97.39
2023-04-25T05:06:33.967Z,97.71
2023-04-25T05:07:33.964Z,97.75
2023-04-25T05:08:33.952Z,97.19
2023-04-25T05:09:33.952Z,97.71
2023-04-25T05:10:33.946Z,97.08
2023-04-25T05:11:33.945Z,96.98
2023-04-25T05:12:34.702Z,97.39
2023-04-25T05:13:33.934Z,96.98
2023-04-25T05:14:33.955Z,96.56
2023-04-25T05:15:33.916Z,96.98
2023-04-25T05:16:33.982Z,97.19
2023-04-25T05:17:33.986Z,97.19
2023-04-25T05:18:33.911Z,97.19
2023-04-25T05:19:33.918Z,96.77
2023-04-25T05:20:33.898Z,96.47
2023-04-25T05:21:33.887Z,96.98
2023-04-25T05:22:33.883Z,96.67
2023-04-25T05:23:33.874Z,96.77
2023-04-25T05:24:33.867Z,96.77
2023-04-25T05:25:33.967Z,97.29
2023-04-25T05:26:33.855Z,96.77
2023-04-25T05:27:33.855Z,96.98
2023-04-25T05:28:33.856Z,96.42
2023-04-25T05:29:33.844Z,96.94
2023-04-25T05:30:33.869Z,96.83
2023-04-25T05:31:33.938Z,97.04
2023-04-25T05:32:33.860Z,96.73
2023-04-25T05:33:33.832Z,96.52
2023-04-25T05:34:33.814Z,96.73
2023-04-25T05:35:33.863Z,96.83
2023-04-25T05:36:33.808Z,96.42
2023-04-25T05:37:33.901Z,96.73
2023-04-25T05:38:35.033Z,96.52
2023-04-25T05:39:33.792Z,96.52
2023-04-25T05:40:33.781Z,96.99
2023-04-25T05:41:33.774Z,97.09
2023-04-25T05:42:33.770Z,96.99
2023-04-25T05:43:33.762Z,97.14
2023-04-25T05:44:33.756Z,96.89
2023-04-25T05:45:33.831Z,96.37
2023-04-25T05:46:33.891Z,96.73
2023-04-25T05:47:33.804Z,97.04
2023-04-25T05:48:33.760Z,96.89
2023-04-25T05:49:33.737Z,96.94
2023-04-25T05:50:33.722Z,96.62
2023-04-25T05:51:33.725Z,96.58
2023-04-25T05:52:33.716Z,96.52
2023-04-25T05:53:33.719Z,95.86
2023-04-25T05:54:33.712Z,96.06
2023-04-25T05:55:33.702Z,95.14
2023-04-25T05:56:33.696Z,95.96
2023-04-25T05:57:33.693Z,95.86
2023-04-25T05:58:33.682Z,94.87
2023-04-25T05:59:33.698Z,94.52
2023-04-25T06:00:33.676Z,94.35
2023-04-25T06:01:33.674Z,94.21
2023-04-25T06:02:33.814Z,95.03
2023-04-25T06:03:33.908Z,94.93
2023-04-25T06:04:34.198Z,96.27
2023-04-25T06:05:33.717Z,95.65
2023-04-25T06:06:33.641Z,95.09
2023-04-25T06:07:33.639Z,94.78
2023-04-25T06:08:33.633Z,94.57
2023-04-25T06:09:33.625Z,94.78
2023-04-25T06:10:33.624Z,95.05
2023-04-25T06:11:33.625Z,94.68
2023-04-25T06:12:33.612Z,94.32
2023-04-25T06:13:33.601Z,94.57
2023-04-25T06:14:33.603Z,94.47
2023-04-25T06:15:33.613Z,94.23
2023-04-25T06:16:33.649Z,94.53
2023-04-25T06:17:33.632Z,94.32
2023-04-25T06:18:33.640Z,94.53
2023-04-25T06:19:33.571Z,94.37
2023-04-25T06:20:33.564Z,94.74
2023-04-25T06:21:33.569Z,94.32
2023-04-25T06:22:33.559Z,94.32
2023-04-25T06:23:33.557Z,94.32
2023-04-25T06:24:33.547Z,94.02
2023-04-25T06:25:33.541Z,93.19
2023-04-25T06:26:33.532Z,92.57
2023-04-25T06:27:33.531Z,93.19
2023-04-25T06:28:33.542Z,92.47
2023-04-25T06:29:33.517Z,92.37
2023-04-25T06:30:33.514Z,92.88
2023-04-25T06:31:33.560Z,92.27
2023-04-25T06:32:33.561Z,92.06
2023-04-25T06:33:33.504Z,92.06
2023-04-25T06:34:33.543Z,92.06
2023-04-25T06:35:33.494Z,91.24
2023-04-25T06:36:33.483Z,92.12
2023-04-25T06:37:33.490Z,92.53
2023-04-25T06:38:33.486Z,92.94
2023-04-25T06:39:33.466Z,92.53
2023-04-25T06:40:33.467Z,92.63
2023-04-25T06:41:33.468Z,92.12
2023-04-25T06:42:33.458Z,92.84
2023-04-25T06:43:33.448Z,92.33
2023-04-25T06:44:33.447Z,92.74
2023-04-25T06:45:33.440Z,92.63
2023-04-25T06:46:33.494Z,91.24
2023-04-25T06:47:33.441Z,91.13
2023-04-25T06:48:33.443Z,90.72
2023-04-25T06:49:33.426Z,91.24
2023-04-25T06:50:33.436Z,90.92
2023-04-25T06:51:33.410Z,90.51
2023-04-25T06:52:33.419Z,90.41
2023-04-25T06:53:33.399Z,91.34
2023-04-25T06:54:33.388Z,91.34
2023-04-25T06:55:33.388Z,91.44
2023-04-25T06:56:33.434Z,90.10
2023-04-25T06:57:33.377Z,89.89
2023-04-25T06:58:33.574Z,90.00
2023-04-25T06:59:33.369Z,90.10
2023-04-25T07:00:33.385Z,90.00
2023-04-25T07:01:33.366Z,89.17
2023-04-25T07:02:33.486Z,89.07
2023-04-25T07:03:33.479Z,88.56
2023-04-25T07:04:33.484Z,89.28
2023-04-25T07:05:33.340Z,90.51
2023-04-25T07:06:33.346Z,90.88
2023-04-25T07:07:33.326Z,89.75
2023-04-25T07:08:33.322Z,89.03
2023-04-25T07:09:33.322Z,88.92
2023-04-25T07:10:33.318Z,89.29
2023-04-25T07:11:33.313Z,89.03
2023-04-25T07:12:33.434Z,88.99
2023-04-25T07:13:33.299Z,89.81
2023-04-25T07:14:33.291Z,90.18
2023-04-25T07:15:33.288Z,88.84
2023-04-25T07:16:33.334Z,88.84
2023-04-25T07:17:33.307Z,87.81
2023-04-25T07:18:33.275Z,86.06
2023-04-25T07:19:33.266Z,84.45
2023-04-25T07:20:33.259Z,86.00
2023-04-25T07:21:33.260Z,85.69
2023-04-25T07:22:33.267Z,86.21
2023-04-25T07:23:33.252Z,86.00
2023-04-25T07:24:33.247Z,86.88
2023-04-25T07:25:33.252Z,86.16
2023-04-25T07:26:33.229Z,86.16
2023-04-25T07:27:33.234Z,83.39
2023-04-25T07:28:33.225Z,85.14
2023-04-25T07:29:33.219Z,85.44
2023-04-25T07:30:33.210Z,85.03
2023-04-25T07:31:33.272Z,85.61
2023-04-25T07:32:33.224Z,86.13
2023-04-25T07:33:33.196Z,85.10
2023-04-25T07:34:33.233Z,85.61
2023-04-25T07:35:33.186Z,85.71
2023-04-25T07:36:33.181Z,86.23
2023-04-25T07:37:33.183Z,85.98
2023-04-25T07:38:33.195Z,85.36
2023-04-25T07:39:33.175Z,86.35
2023-04-25T07:40:33.157Z,82.79
2023-04-25T07:41:33.158Z,82.73
2023-04-25T07:42:33.148Z,85.16
2023-04-25T07:43:33.148Z,83.51
2023-04-25T07:44:33.138Z,84.07
2023-04-25T07:45:33.166Z,83.45
2023-04-25T07:46:33.136Z,81.95
2023-04-25T07:47:33.145Z,84.52
2023-04-25T07:48:33.116Z,83.70
2023-04-25T07:49:33.120Z,85.03
2023-04-25T07:50:33.115Z,85.34
2023-04-25T07:51:33.101Z,86.47
2023-04-25T07:52:33.095Z,87.60
2023-04-25T07:53:33.103Z,86.58
2023-04-25T07:54:33.112Z,86.79
2023-04-25T07:55:33.084Z,86.06
2023-04-25T07:56:45.187Z,87.71
2023-04-25T07:57:33.069Z,86.68
2023-04-25T07:58:33.069Z,86.88
2023-04-25T07:59:33.064Z,86.79
2023-04-25T08:00:33.054Z,87.81
2023-04-25T08:01:33.062Z,88.02
2023-04-25T08:02:33.149Z,88.47
2023-04-25T08:03:33.643Z,87.96
2023-04-25T08:04:33.312Z,86.00
2023-04-25T08:05:33.165Z,86.41
2023-04-25T08:06:33.388Z,86.61
2023-04-25T08:07:33.022Z,86.61
2023-04-25T08:08:33.021Z,86.61
2023-04-25T08:09:33.011Z,86.00
2023-04-25T08:10:33.019Z,84.35
2023-04-25T08:11:33.011Z,84.39
2023-04-25T08:12:32.994Z,84.77
2023-04-25T08:13:32.990Z,84.91
2023-04-25T08:14:32.981Z,86.00
2023-04-25T08:15:33.039Z,87.19
2023-04-25T08:16:32.999Z,86.47
2023-04-25T08:17:32.986Z,85.55
2023-04-25T08:18:32.977Z,85.86
2023-04-25T08:19:32.959Z,83.70
2023-04-25T08:20:32.981Z,85.06
2023-04-25T08:21:32.966Z,86.05
2023-04-25T08:22:32.961Z,83.58
2023-04-25T08:23:32.936Z,84.42
2023-04-25T08:24:32.941Z,81.96
2023-04-25T08:25:32.931Z,82.37
2023-04-25T08:26:33.062Z,80.46
2023-04-25T08:27:32.926Z,80.15
2023-04-25T08:29:32.912Z,80.08
2023-04-25T08:30:32.906Z,80.91
2023-04-25T08:31:32.942Z,79.50
2023-04-25T08:32:32.908Z,81.35
2023-04-25T08:33:32.894Z,83.92
2023-04-25T08:34:32.888Z,82.69
2023-04-25T08:35:32.885Z,81.76
2023-04-25T08:36:39.105Z,81.15
2023-04-25T08:37:32.874Z,80.63
2023-04-25T08:38:32.869Z,78.78
2023-04-25T08:39:32.866Z,79.64
2023-04-25T08:40:32.858Z,81.29
2023-04-25T08:41:32.879Z,82.69
2023-04-25T08:42:32.872Z,83.00
2023-04-25T08:43:32.848Z,82.39
2023-04-25T08:44:32.847Z,82.18
2023-04-25T08:45:32.833Z,83.92
2023-04-25T08:46:32.881Z,81.21
2023-04-25T08:47:32.856Z,80.49
2023-04-25T08:48:32.823Z,81.59
2023-04-25T08:49:32.827Z,81.45
2023-04-25T08:50:32.823Z,80.58
2023-04-25T08:51:32.802Z,81.14
2023-04-25T08:52:32.811Z,79.80
2023-04-25T08:53:33.910Z,78.78
2023-04-25T08:54:35.601Z,76.14
2023-04-25T08:55:32.786Z,78.44
2023-04-25T08:56:32.785Z,77.82
2023-04-25T08:57:32.799Z,77.96
2023-04-25T08:58:32.953Z,79.47
2023-04-25T08:59:32.767Z,80.08
2023-04-25T09:00:32.761Z,78.23
2023-04-25T09:01:32.844Z,76.21
2023-04-25T09:02:32.960Z,77.24
2023-04-25T09:03:32.918Z,76.45
2023-04-25T09:04:32.762Z,76.56
2023-04-25T09:05:32.739Z,76.86
2023-04-25T09:06:32.734Z,78.72
2023-04-25T09:07:32.728Z,77.48
2023-04-25T09:08:32.977Z,79.85
2023-04-25T09:09:32.719Z,77.89
2023-04-25T09:11:32.703Z,77.69
2023-04-25T09:12:32.707Z,79.26
2023-04-25T09:13:32.697Z,80.19
2023-04-25T09:14:32.957Z,78.54
2023-04-25T09:15:32.686Z,78.75
2023-04-25T09:16:33.696Z,79.88
2023-04-25T09:17:32.709Z,77.48
2023-04-25T09:18:32.672Z,77.48
2023-04-25T09:19:40.391Z,78.06
2023-04-25T09:20:35.218Z,77.48
2023-04-25T09:21:32.660Z,78.16
2023-04-25T09:22:32.667Z,80.73
2023-04-25T09:23:32.645Z,77.95
2023-04-25T09:24:32.643Z,76.21
2023-04-25T09:25:32.634Z,77.34
2023-04-25T09:26:32.634Z,77.65
2023-04-25T09:27:32.626Z,77.30
2023-04-25T09:28:32.617Z,74.67
2023-04-25T09:29:32.694Z,74.46
2023-04-25T09:30:32.643Z,75.18
2023-04-25T09:31:32.632Z,76.68
2023-04-25T09:32:32.709Z,77.92
2023-04-25T09:33:32.612Z,75.35
2023-04-25T09:34:32.593Z,73.74
2023-04-25T09:35:32.586Z,75.08
2023-04-25T09:36:32.582Z,76.62
2023-04-25T09:37:32.585Z,75.18
2023-04-25T09:38:32.574Z,74.70
2023-04-25T09:39:32.568Z,75.93
2023-04-25T09:40:32.573Z,75.42
2023-04-25T09:41:32.552Z,74.08
2023-04-25T09:42:32.560Z,77.58
2023-04-25T09:43:32.543Z,78.30
2023-04-25T09:44:32.547Z,77.68
2023-04-25T09:45:32.558Z,77.41
2023-04-25T09:46:32.782Z,75.67
2023-04-25T09:47:32.557Z,75.76
2023-04-25T09:48:32.533Z,76.48
2023-04-25T09:49:32.521Z,77.45
2023-04-25T09:50:32.514Z,77.82
2023-04-25T09:51:32.510Z,78.06
2023-04-25T09:52:32.518Z,79.88
2023-04-25T09:53:32.495Z,79.88
2023-04-25T09:54:32.496Z,76.28
2023-04-25T09:55:32.500Z,77.20
2023-04-25T09:56:32.499Z,78.54
2023-04-25T09:57:32.477Z,81.28
2023-04-25T09:58:33.328Z,79.70
2023-04-25T09:59:32.477Z,78.47
2023-04-25T10:00:32.483Z,76.72
2023-04-25T10:01:32.474Z,77.13
2023-04-25T10:02:32.673Z,74.26
2023-04-25T10:03:32.715Z,71.48
2023-04-25T10:04:34.050Z,74.36
2023-04-25T10:05:32.437Z,73.85
2023-04-25T10:06:32.451Z,74.98
2023-04-25T10:07:32.450Z,75.38
2023-04-25T10:08:32.830Z,74.43
2023-04-25T10:09:32.413Z,74.22
2023-04-25T10:10:32.414Z,75.97
2023-04-25T10:11:32.406Z,72.99
2023-04-25T10:12:32.423Z,71.04
2023-04-25T10:13:32.397Z,71.76
2023-04-25T10:14:32.394Z,70.94
2023-04-25T10:15:32.415Z,75.35
2023-04-25T10:16:32.472Z,71.14
2023-04-25T10:17:32.580Z,70.01
2023-04-25T10:18:32.399Z,72.68
2023-04-25T10:19:32.431Z,73.91
2023-04-25T10:20:32.372Z,72.99
2023-04-25T10:21:32.360Z,72.17
2023-04-25T10:22:32.351Z,74.12
2023-04-25T10:23:32.359Z,73.50
2023-04-25T10:24:32.351Z,73.19
2023-04-25T10:25:32.340Z,73.81
2023-04-25T10:26:32.343Z,72.68
2023-04-25T10:27:32.333Z,73.81
2023-04-25T10:28:32.335Z,70.73
2023-04-25T10:29:32.314Z,71.35
2023-04-25T10:30:32.392Z,69.09
2023-04-25T10:31:32.584Z,70.87
2023-04-25T10:32:32.304Z,72.48
2023-04-25T10:33:32.297Z,71.59
2023-04-25T10:34:32.344Z,70.97
2023-04-25T10:35:32.282Z,70.97
2023-04-25T10:36:32.281Z,73.54
2023-04-25T10:37:32.279Z,73.95
2023-04-25T10:38:32.272Z,72.92
2023-04-25T10:39:32.265Z,75.59
2023-04-25T10:40:32.261Z,75.08
2023-04-25T10:41:32.254Z,73.44
2023-04-25T10:42:32.259Z,70.76
2023-04-25T10:43:32.253Z,70.08
2023-04-25T10:44:32.242Z,72.24
2023-04-25T10:45:32.239Z,72.13
2023-04-25T10:46:32.392Z,73.47
2023-04-25T10:47:32.272Z,72.75
2023-04-25T10:48:32.217Z,71.72
2023-04-25T10:49:32.224Z,72.55
2023-04-25T10:50:32.231Z,72.10
2023-04-25T10:51:39.916Z,73.74
2023-04-25T10:52:32.201Z,76.93
2023-04-25T10:53:32.191Z,73.33
2023-04-25T10:54:32.191Z,75.76
2023-04-25T10:55:32.182Z,74.22
2023-04-25T10:56:32.193Z,74.22
2023-04-25T10:57:32.173Z,73.61
2023-04-25T10:58:32.175Z,70.73
2023-04-25T10:59:32.166Z,69.29
2023-04-25T11:00:42.959Z,72.17
2023-04-25T11:01:32.168Z,71.35
2023-04-25T11:02:32.336Z,71.66
2023-04-25T11:03:32.372Z,70.12
2023-04-25T11:04:32.475Z,73.91
2023-04-25T11:05:33.053Z,71.86
2023-04-25T11:06:32.149Z,70.01
2023-04-25T11:07:32.120Z,71.45
2023-04-25T11:08:32.519Z,72.17
2023-04-25T11:09:32.115Z,73.88
2023-04-25T11:10:32.114Z,73.36
2023-04-25T11:11:32.099Z,70.67
2023-04-25T11:12:32.094Z,66.67
2023-04-25T11:13:32.102Z,66.56
2023-04-25T11:14:32.106Z,71.69
2023-04-25T11:15:32.086Z,70.64
2023-04-25T11:16:32.219Z,69.81
2023-04-25T11:17:32.170Z,69.81
2023-04-25T11:18:32.128Z,69.10
2023-04-25T11:19:32.094Z,70.22
2023-04-25T11:20:32.068Z,71.45
2023-04-25T11:21:32.052Z,71.11
2023-04-25T11:22:32.069Z,71.32
2023-04-25T11:23:32.047Z,71.42
2023-04-25T11:24:32.039Z,69.17
2023-04-25T11:25:32.245Z,69.92
2023-04-25T11:26:32.041Z,67.05
2023-04-25T11:27:32.023Z,66.67
2023-04-25T11:28:32.021Z,67.18
2023-04-25T11:29:32.019Z,66.77
2023-04-25T11:30:32.086Z,68.13
2023-04-25T11:31:32.096Z,67.72
2023-04-25T11:32:32.088Z,69.06
2023-04-25T11:33:31.997Z,69.26
2023-04-25T11:34:32.104Z,68.96
2023-04-25T11:35:31.985Z,66.70
2023-04-25T11:36:32.003Z,66.60
2023-04-25T11:37:31.974Z,66.56
2023-04-25T11:38:32.035Z,67.79
2023-04-25T11:39:31.973Z,67.69
2023-04-25T11:40:31.971Z,67.76
2023-04-25T11:41:31.960Z,71.11
2023-04-25T11:42:31.951Z,69.57
2023-04-25T11:43:32.400Z,70.91
2023-04-25T11:44:31.942Z,68.01
2023-04-25T11:45:31.937Z,70.87
2023-04-25T11:46:31.994Z,70.36
2023-04-25T11:47:32.033Z,68.93
2023-04-25T11:48:31.925Z,69.75
2023-04-25T11:49:32.388Z,69.13
2023-04-25T11:50:31.915Z,71.08
2023-04-25T11:51:31.908Z,67.90
2023-04-25T11:52:31.904Z,67.19
2023-04-25T11:53:31.895Z,73.44
2023-04-25T11:54:31.912Z,69.34
2023-04-25T11:55:31.885Z,65.86
2023-04-25T11:56:31.884Z,66.57
2023-04-25T11:57:31.884Z,69.65
2023-04-25T11:58:31.881Z,69.10
2023-04-25T11:59:31.874Z,67.80
2023-04-25T12:00:31.869Z,68.41
2023-04-25T12:01:35.129Z,71.18
2023-04-25T12:02:32.042Z,68.01
2023-04-25T12:03:32.078Z,69.85
2023-04-25T12:04:32.004Z,66.40
2023-04-25T12:05:33.397Z,68.99
2023-04-25T12:06:31.924Z,70.53
2023-04-25T12:07:31.833Z,67.90
2023-04-25T12:08:31.830Z,69.64
2023-04-25T12:09:31.887Z,69.88
2023-04-25T12:10:31.912Z,72.24
2023-04-25T12:11:31.809Z,72.96
2023-04-25T12:12:31.835Z,71.97
2023-04-25T12:13:31.950Z,74.32
2023-04-25T12:14:31.807Z,75.35
2023-04-25T12:15:31.799Z,75.45
2023-04-25T12:16:31.815Z,75.66
2023-04-25T12:17:31.798Z,76.00
2023-04-25T12:18:31.782Z,76.58
2023-04-25T12:19:31.778Z,77.13
2023-04-25T12:20:31.770Z,76.62
2023-04-25T12:21:31.785Z,77.23
2023-04-25T12:22:31.758Z,77.34
2023-04-25T12:23:31.792Z,77.55
2023-04-25T12:24:31.754Z,76.14
2023-04-25T12:25:31.749Z,77.68
2023-04-25T12:26:31.821Z,76.76
2023-04-25T12:27:31.732Z,76.97
2023-04-25T12:28:31.734Z,77.78
2023-04-25T12:29:34.785Z,75.73
2023-04-25T12:30:31.721Z,77.06
2023-04-25T12:31:31.774Z,76.79
2023-04-25T12:32:31.748Z,77.20
2023-04-25T12:33:31.718Z,78.85
2023-04-25T12:34:31.700Z,79.26
2023-04-25T12:35:31.691Z,80.39
2023-04-25T12:36:31.690Z,78.13
2023-04-25T12:37:31.690Z,78.96
2023-04-25T12:38:31.694Z,77.82
2023-04-25T12:39:31.679Z,78.85
2023-04-25T12:40:31.677Z,80.91
2023-04-25T12:41:31.661Z,81.56
2023-04-25T12:42:31.675Z,81.49
2023-04-25T12:43:31.651Z,81.81
2023-04-25T12:44:31.647Z,83.65
2023-04-25T12:45:31.640Z,83.39
2023-04-25T12:46:31.656Z,84.42
2023-04-25T12:47:31.659Z,85.17
2023-04-25T12:48:31.627Z,85.69
2023-04-25T12:49:31.629Z,85.59
2023-04-25T12:50:31.617Z,84.25
2023-04-25T12:51:31.608Z,85.89
2023-04-25T12:52:31.616Z,86.93
2023-04-25T12:53:33.152Z,85.07
2023-04-25T12:54:31.598Z,84.62